San Ardo, CA (93450)

12:26 PM PDT on August 27, 2015 (GMT -0700)
South of San Ardo | | Change Station
CLOSE
Current Station
Personal Weather Station
Location: San Ardo, CA
Elevation: 600 ft
Nearby Weather Stations

Elev 600 ft 35.97 °N, 120.90 °W | Updated 12 seconds ago

Clear
Clear
91.6 °F
Feels Like 88 °F
N
2.5
Wind Variable Wind from North
Gusts 4.9 mph

Today
High -- | Low -- °F
--% Chance of Precip.
Yesterday
High -- | Low -- °F
Precip. -- in
6:31 AM 7:38 PM
Waxing Gibbous, 94% visible
Pressure 30.01 in
Visibility 10.0 miles
Clouds Clear
Heat Index 88 °F
Dew Point 41 °F
Humidity 17%
Rainfall 0.00 in
Snow Depth Not available.
UV 9.0 out of 12
Pollen 8.90 out of 12
Air Quality Not available.
Flu Activity Not available.
METAR KPRB 271853Z AUTO VRB03KT 10SM CLR 33/06 A3004 RMK AO2 SLP163 T03280061 TSNO
Pressure 30.01 in
Visibility 10.0 miles
Clouds Clear
Heat Index 88 °F
Dew Point 41 °F
Humidity 17%
Rainfall 0.00 in
Snow Depth Not available.
UV 9.0 out of 12
Pollen 8.90 out of 12
Air Quality Not available.
Flu Activity Not available.
METAR KPRB 271853Z AUTO VRB03KT 10SM CLR 33/06 A3004 RMK AO2 SLP163 T03280061 TSNO

10-Day Weather Forecast

×

Almanac

Astronomy

Aug. 27, 2015 Rise Set
Actual Time
Civil Twilight
Nautical Twilight
Astronomical Twilight
Moon
Length of Visible Light
Length of Day
Tomorrow will be .
, % of the Moon is Illuminated

Today's Extremes

State Highs State Lows

Community

WunderPhotos

Upload Photos

1,850,195 photos uploaded!

WunderBlogs® & News

Nearby

Air Quality

  Air Quality AQ Index Pollutant
Not available.

Snow Depth

Station Depth Elevation

Earthquake Activity

City Distance Mag. Time & Date
Minimum magnitude displayed is 2.5.

Coastal Water Temperatures

Place Temperature

Stations

Nearby Weather Stations

Station Location Temp. Windchill Dew Point Humidity Wind Precip. Elev Updated Type